SARI METAR and TAF weather

Enter ICAO airport designator
Station Type Date Time Source
SARI METAR 2022/01/26 13:00 UTC NOAA

SARI 261300Z 36007KT 9999 FEW030 BKN100 29/23 Q1010


Station Type Date Time Source
SARI Decoded METAR 2022/01/26 13:00 UTC NOAA

Iguazu Aerodrome, Argentina (SARI) 25-44S 054-28W 270M
Jan 26, 2022 - 08:00 AM EST / 2022.01.26 1300 UTC
Wind: from the N (360 degrees) at 8 MPH (7 KT):0
Visibility: greater than 7 mile(s):0
Sky conditions: mostly cloudy
Temperature: 84 F (29 C)
Dew Point: 73 F (23 C)
Relative Humidity: 70%
Pressure (altimeter): 29.83 in. Hg (1010 hPa)
ob: SARI 261300Z 36007KT 9999 FEW030 BKN100 29/23 Q1010
cycle: 13

Station Type Date Time Source
SARI TAF 2022/01/26 12:20 UTC NOAA

TAF SARI 261100Z 2612/2712 05005KT 9999 SCT030 TX40/2619Z TN22/2710Z PROB40
TEMPO 2621/2703 8000 -TSRA BKN025 FEW055CB

Example: see airport list